Map

Track Data

SID SEASON NUMBER BASIN SUBBASIN NAME ISO_TIME NATURE LAT LON WMO_WIND WMO_PRES WMO_AGENCY TRACK_TYPE DIST2LAND LANDFALL IFLAG USA_AGENCY USA_ATCF_ID USA_LAT USA_LON USA_RECORD USA_STATUS USA_WIND USA_PRES USA_SSHS USA_R34_NE USA_R34_SE USA_R34_SW USA_R34_NW USA_R50_NE USA_R50_SE USA_R50_SW USA_R50_NW USA_R64_NE USA_R64_SE USA_R64_SW USA_R64_NW USA_POCI USA_ROCI USA_RMW USA_EYE TOKYO_LAT TOKYO_LON TOKYO_GRADE TOKYO_WIND TOKYO_PRES TOKYO_R50_DIR TOKYO_R50_LONG TOKYO_R50_SHORT TOKYO_R30_DIR TOKYO_R30_LONG TOKYO_R30_SHORT TOKYO_LAND CMA_LAT CMA_LON CMA_CAT CMA_WIND CMA_PRES HKO_LAT HKO_LON HKO_CAT HKO_WIND HKO_PRES NEWDELHI_LAT NEWDELHI_LON NEWDELHI_GRADE NEWDELHI_WIND NEWDELHI_PRES NEWDELHI_CI NEWDELHI_DP NEWDELHI_POCI REUNION_LAT REUNION_LON REUNION_TYPE REUNION_WIND REUNION_PRES REUNION_TNUM REUNION_CI REUNION_RMW REUNION_R34_NE REUNION_R34_SE REUNION_R34_SW REUNION_R34_NW REUNION_R50_NE REUNION_R50_SE REUNION_R50_SW REUNION_R50_NW REUNION_R64_NE REUNION_R64_SE REUNION_R64_SW REUNION_R64_NW BOM_LAT BOM_LON BOM_TYPE BOM_WIND BOM_PRES BOM_TNUM BOM_CI BOM_RMW BOM_R34_NE BOM_R34_SE BOM_R34_SW BOM_R34_NW BOM_R50_NE BOM_R50_SE BOM_R50_SW BOM_R50_NW BOM_R64_NE BOM_R64_SE BOM_R64_SW BOM_R64_NW BOM_ROCI BOM_POCI BOM_EYE BOM_POS_METHOD BOM_PRES_METHOD NADI_LAT NADI_LON NADI_CAT NADI_WIND NADI_PRES WELLINGTON_LAT WELLINGTON_LON WELLINGTON_WIND WELLINGTON_PRES DS824_LAT DS824_LON DS824_STAGE DS824_WIND DS824_PRES TD9636_LAT TD9636_LON TD9636_STAGE TD9636_WIND TD9636_PRES TD9635_LAT TD9635_LON TD9635_WIND TD9635_PRES TD9635_ROCI NEUMANN_LAT NEUMANN_LON NEUMANN_CLASS NEUMANN_WIND NEUMANN_PRES MLC_LAT MLC_LON MLC_CLASS MLC_WIND MLC_PRES USA_GUST BOM_GUST BOM_GUST_PER REUNION_GUST REUNION_GUST_PER USA_SEAHGT USA_SEARAD_NE USA_SEARAD_SE USA_SEARAD_SW USA_SEARAD_NW STORM_SPEED STORM_DIR
1890021S12081 1890 5 SI MM NOT_NAMED 1890-01-21 06:00:00 NR -11.6000 80.7000 main 1960 1960 __________O___ -1 -11.6000 80.7000 7 6 263
1890021S12081 1890 5 SI MM NOT_NAMED 1890-01-21 09:00:00 NR -11.6393 80.3828 main 1960 1960 __________P___ -1 -11.6393 80.3828 7 6 262
1890021S12081 1890 5 SI MM NOT_NAMED 1890-01-21 12:00:00 NR -11.6827 80.0625 main 1972 1972 __________P___ -1 -11.6827 80.0625 7 6 261
1890021S12081 1890 5 SI MM NOT_NAMED 1890-01-21 15:00:00 NR -11.7348 79.7359 main 1974 1974 __________P___ -1 -11.7348 79.7359 7 7 260
1890021S12081 1890 5 SI MM NOT_NAMED 1890-01-21 18:00:00 NR -11.8000 79.4000 main 1987 1987 __________O___ -1 -11.8000 79.4000 7 7 258
1890021S12081 1890 5 SI MM NOT_NAMED 1890-01-21 21:00:00 NR -11.8815 79.0531 main 2001 2001 __________P___ -1 -11.8815 79.0531 7 7 255
1890021S12081 1890 5 SI MM NOT_NAMED 1890-01-22 00:00:00 NR -11.9774 78.7000 main 2016 2016 __________P___ -1 -11.9774 78.7000 7 7 254
1890021S12081 1890 5 SI MM NOT_NAMED 1890-01-22 03:00:00 NR -12.0846 78.3468 main 2032 2032 __________P___ -1 -12.0846 78.3468 7 7 252
1890021S12081 1890 5 SI MM NOT_NAMED 1890-01-22 06:00:00 NR -12.2000 78.0000 main 2048 2048 __________O___ -1 -12.2000 78.0000 7 7 251
1890021S12081 1890 5 SI MM NOT_NAMED 1890-01-22 09:00:00 NR -12.3177 77.6556 main 2064 2064 __________P___ -1 -12.3177 77.6556 7 7 250
1890021S12081 1890 5 SI MM NOT_NAMED 1890-01-22 12:00:00 NR -12.4424 77.3200 main 2082 2082 __________P___ -1 -12.4424 77.3200 7 7 248
1890021S12081 1890 5 SI MM NOT_NAMED 1890-01-22 15:00:00 NR -12.5709 76.9994 main 2110 2110 __________P___ -1 -12.5709 76.9994 7 7 247
1890021S12081 1890 5 SI MM NOT_NAMED 1890-01-22 18:00:00 NR -12.7000 76.7000 main 2128 2128 __________O___ -1 -12.7000 76.7000 7 6 246
1890021S12081 1890 5 SI MM NOT_NAMED 1890-01-22 21:00:00 NR -12.8126 76.4363 main 2146 2126 __________P___ -1 -12.8126 76.4363 7 5 245
1890021S12081 1890 5 SI MM NOT_NAMED 1890-01-23 00:00:00 NR -12.9272 76.1921 main 2126 2102 __________P___ -1 -12.9272 76.1921 7 5 243
1890021S12081 1890 5 SI MM NOT_NAMED 1890-01-23 03:00:00 NR -13.0532 75.9519 main 2097 2063 __________P___ -1 -13.0532 75.9519 7 6 240
1890021S12081 1890 5 SI MM NOT_NAMED 1890-01-23 06:00:00 NR -13.2000 75.7000 main 2063 2024 __________O___ -1 -13.2000 75.7000 7 6 238
1890021S12081 1890 5 SI MM NOT_NAMED 1890-01-23 09:00:00 NR -13.3826 75.4023 main 2024 1985 __________P___ -1 -13.3826 75.4023 7 7 237
1890021S12081 1890 5 SI MM NOT_NAMED 1890-01-23 12:00:00 NR -13.5851 75.0927 main 1985 1946 __________P___ -1 -13.5851 75.0927 7 7 235
1890021S12081 1890 5 SI MM NOT_NAMED 1890-01-23 15:00:00 NR -13.7951 74.7867 main 1946 1908 __________P___ -1 -13.7951 74.7867 7 7 234
1890021S12081 1890 5 SI MM NOT_NAMED 1890-01-23 18:00:00 NR -14.0000 74.5000 main 1908 1879 __________O___ -1 -14.0000 74.5000 7 7 233
1890021S12081 1890 5 SI MM NOT_NAMED 1890-01-23 21:00:00 NR -14.1861 74.2533 main 1879 1840 __________P___ -1 -14.1861 74.2533 7 6 231
1890021S12081 1890 5 SI MM NOT_NAMED 1890-01-24 00:00:00 NR -14.3648 74.0273 main 1840 1816 __________P___ -1 -14.3648 74.0273 7 6 231
1890021S12081 1890 5 SI MM NOT_NAMED 1890-01-24 03:00:00 NR -14.5361 73.8127 main 1816 1787 __________P___ -1 -14.5361 73.8127 7 5 231
1890021S12081 1890 5 SI MM NOT_NAMED 1890-01-24 06:00:00 NR -14.7000 73.6000 main 1787 1763 __________O___ -1 -14.7000 73.6000 7 5 234
1890021S12081 1890 5 SI MM NOT_NAMED 1890-01-24 09:00:00 NR -14.8490 73.3708 main 1763 1735 __________P___ -1 -14.8490 73.3708 7 5 237
1890021S12081 1890 5 SI MM NOT_NAMED 1890-01-24 12:00:00 NR -14.9925 73.1423 main 1725 1701 __________P___ -1 -14.9925 73.1423 7 5 236
1890021S12081 1890 5 SI MM NOT_NAMED 1890-01-24 15:00:00 NR -15.1397 72.9176 main 1701 1672 __________P___ -1 -15.1397 72.9176 7 5 234
1890021S12081 1890 5 SI MM NOT_NAMED 1890-01-24 18:00:00 NR -15.3000 72.7000 main 1672 1644 __________O___ -1 -15.3000 72.7000 7 5 230
1890021S12081 1890 5 SI MM NOT_NAMED 1890-01-24 21:00:00 NR -15.4692 72.5087 main 1644 1620 __________P___ -1 -15.4692 72.5087 7 5 226
1890021S12081 1890 5 SI MM NOT_NAMED 1890-01-25 00:00:00 NR -15.6547 72.3219 main 1616 1588 __________P___ -1 -15.6547 72.3219 7 5 223
1890021S12081 1890 5 SI MM NOT_NAMED 1890-01-25 03:00:00 NR -15.8629 72.1242 main 1588 1561 __________P___ -1 -15.8629 72.1242 7 6 222
1890021S12081 1890 5 SI MM NOT_NAMED 1890-01-25 06:00:00 NR -16.1000 71.9000 main 1561 1519 __________O___ -1 -16.1000 71.9000 7 7 224
1890021S12081 1890 5 SI MM NOT_NAMED 1890-01-25 09:00:00 NR -16.3673 71.6208 main 1519 1482 __________P___ -1 -16.3673 71.6208 7 8 225
1890021S12081 1890 5 SI MM NOT_NAMED 1890-01-25 12:00:00 NR -16.6627 71.3152 main 1478 1438 __________P___ -1 -16.6627 71.3152 7 9 224
1890021S12081 1890 5 SI MM NOT_NAMED 1890-01-25 15:00:00 NR -16.9767 71.0019 main 1438 1398 __________P___ -1 -16.9767 71.0019 7 9 223
1890021S12081 1890 5 SI MM NOT_NAMED 1890-01-25 18:00:00 NR -17.3000 70.7000 main 1398 1368 __________O___ -1 -17.3000 70.7000 7 8 220
1890021S12081 1890 5 SI MM NOT_NAMED 1890-01-25 21:00:00 NR -17.5930 70.4590 main 1368 1329 __________P___ -1 -17.5930 70.4590 7 8 217
1890021S12081 1890 5 SI MM NOT_NAMED 1890-01-26 00:00:00 NR -17.8969 70.2284 main 1329 1301 __________P___ -1 -17.8969 70.2284 7 8 216
1890021S12081 1890 5 SI MM NOT_NAMED 1890-01-26 03:00:00 NR -18.2273 69.9837 main 1301 1261 __________P___ -1 -18.2273 69.9837 7 9 216
1890021S12081 1890 5 SI MM NOT_NAMED 1890-01-26 06:00:00 NR -18.6000 69.7000 main 1261 1212 __________O___ -1 -18.6000 69.7000 7 10 218
1890021S12081 1890 5 SI MM NOT_NAMED 1890-01-26 09:00:00 NR -19.0283 69.3234 main 1212 1163 __________P___ -1 -19.0283 69.3234 7 12 220
1890021S12081 1890 5 SI MM NOT_NAMED 1890-01-26 12:00:00 NR -19.4982 68.9083 main 1163 1117 __________P___ -1 -19.4982 68.9083 7 13 219
1890021S12081 1890 5 SI MM NOT_NAMED 1890-01-26 15:00:00 NR -19.9939 68.4889 main 1117 1073 __________P___ -1 -19.9939 68.4889 7 13 217
1890021S12081 1890 5 SI MM NOT_NAMED 1890-01-26 18:00:00 NR -20.5000 68.1000 main 1073 1042 __________O___ -1 -20.5000 68.1000 7 12 214
1890021S12081 1890 5 SI MM NOT_NAMED 1890-01-26 21:00:00 NR -21.0040 67.7681 main 1043 1015 __________P___ -1 -21.0040 67.7681 7 12 210
1890021S12081 1890 5 SI MM NOT_NAMED 1890-01-27 00:00:00 NR -21.5046 67.4853 main 1016 992 __________P___ -1 -21.5046 67.4853 7 11 206
1890021S12081 1890 5 SI MM NOT_NAMED 1890-01-27 03:00:00 NR -22.0029 67.2349 main 992 980 __________P___ -1 -22.0029 67.2349 7 11 204
1890021S12081 1890 5 SI MM NOT_NAMED 1890-01-27 06:00:00 NR -22.5000 67.0000 main 983 __________O___ -1 -22.5000 67.0000 7 11 204

About IBTrACS Database

This database is a web-friendly format of International Best Track Archive for Climate Stewardship (IBTrACS), a global best track data archive curated by NOAA dating back to 1842.

Updated: 2021-11-26